Helchteren, Belgium
Current Conditions -  °F | °C
As of 1:55 PM on Saturday 22 Nov 2014 (Local Time) from EBBL Reporting Station
Clear Clear  
Wind Chill: 57°   Ceiling: Unl
Heat Index: 57°   Visibility: NA
Dew Point: 46°   Wind: 3mph
Humidity: 67%   Direction: 170°S
Pressure: 30.03"   Gusts: NA
Location:  51.06°N, 5.38°E
Report Text: EBBL 221255Z AUTO 17003KT //// NCD 14/08 Q1017
Loading
Personal Weather Stations






























Interactive Weather Map New forecast layout! Learn more

10-Day Weather Forecast

Advertisements
Track Severe Weather on mobile